Time;durP1;ratioP1;P1;durP2;ratioP2;P2;SDS_P1;SDS_P2;PMS_P1;PMS_P2;Temp;Humidity;BMP_temperature;BMP_pressure;BME280_temperature;BME280_humidity;BME280_pressure;Samples;Min_cycle;Max_cycle;Signal;HPM_P1;HPM_P2
2022/06/10 00:01:50;;;;;;;;;;;22.60;92.90;;;;;;5016298;28;19931;-79
2022/06/10 00:04:17;;;;;;;;;;;22.60;93.00;;;;;;5016489;28;20012;-79
2022/06/10 00:06:45;;;;;;;;;;;22.60;93.20;;;;;;5016072;28;20349;-79
2022/06/10 00:09:12;;;;;;;;;;;22.60;93.30;;;;;;5016222;28;19925;-79
2022/06/10 00:11:39;;;;;;;;;;;22.60;93.50;;;;;;5015630;28;20289;-80
2022/06/10 00:14:06;;;;;;;;;;;22.60;93.60;;;;;;5015701;28;20008;-79
2022/06/10 00:16:33;;;;;;;;;;;22.60;93.80;;;;;;5015371;28;19964;-79
2022/06/10 00:18:59;;;;;;;;;;;22.60;94.00;;;;;;5016509;28;20003;-79
2022/06/10 00:21:26;;;;;;;;;;;22.60;94.10;;;;;;5016446;28;19928;-79
2022/06/10 00:23:54;;;;;;;;;;;22.60;94.10;;;;;;5016104;28;19929;-79
2022/06/10 00:26:21;;;;;;;;;;;22.60;94.40;;;;;;5016036;28;20396;-79
2022/06/10 00:28:48;;;;;;;;;;;22.60;94.60;;;;;;5016158;28;20027;-79
2022/06/10 00:31:15;;;;;;;;;;;22.70;94.90;;;;;;5015209;28;19971;-79
2022/06/10 00:33:42;;;;;;;;;;;22.60;95.00;;;;;;5015330;28;19921;-79
2022/06/10 00:36:10;;;;;;;;;;;22.60;95.20;;;;;;5015776;28;19928;-79
2022/06/10 00:38:37;;;;;;;;;;;22.70;95.40;;;;;;5015769;28;19922;-79
2022/06/10 00:41:05;;;;;;;;;;;22.70;95.60;;;;;;5015507;28;20008;-79
2022/06/10 00:43:34;;;;;;;;;;;22.70;95.80;;;;;;5015236;28;19925;-79
2022/06/10 00:46:03;;;;;;;;;;;22.70;96.00;;;;;;5015259;28;19921;-79
2022/06/10 00:48:32;;;;;;;;;;;22.70;96.20;;;;;;5015258;28;19929;-79
2022/06/10 00:51:00;;;;;;;;;;;22.70;96.40;;;;;;5018391;28;19960;-79
2022/06/10 00:53:29;;;;;;;;;;;22.70;96.60;;;;;;5016824;28;19921;-79
2022/06/10 00:55:56;;;;;;;;;;;22.70;96.60;;;;;;5017013;28;20016;-80
2022/06/10 00:58:27;;;;;;;;;;;22.70;96.70;;;;;;5016109;28;20016;-80
2022/06/10 01:00:55;;;;;;;;;;;22.70;97.00;;;;;;5016242;28;19922;-80
2022/06/10 01:03:22;;;;;;;;;;;22.70;97.20;;;;;;5015229;28;19932;-79
2022/06/10 01:05:48;;;;;;;;;;;22.70;97.30;;;;;;5015488;28;19971;-79
2022/06/10 01:08:16;;;;;;;;;;;22.70;97.80;;;;;;5015586;28;19969;-79
2022/06/10 01:10:48;;;;;;;;;;;22.70;97.60;;;;;;5015344;28;19921;-79
2022/06/10 01:13:21;;;;;;;;;;;22.70;97.80;;;;;;5015263;28;19921;-79
2022/06/10 01:15:52;;;;;;;;;;;22.60;97.90;;;;;;5014979;28;20457;-79
2022/06/10 01:18:26;;;;;;;;;;;22.60;98.10;;;;;;5015290;28;20008;-79
2022/06/10 01:20:58;;;;;;;;;;;22.60;98.20;;;;;;5015583;28;20012;-79
2022/06/10 01:23:58;;;;;;;;;;;22.60;98.40;;;;;;5015713;28;20020;-79
2022/06/10 01:29:49;;;;;;;;;;;22.60;98.80;;;;;;5015196;28;20436;-79
2022/06/10 01:32:20;;;;;;;;;;;22.60;99.00;;;;;;5015087;28;20015;-79
2022/06/10 01:34:51;;;;;;;;;;;22.60;99.00;;;;;;5015297;28;20389;-79
2022/06/10 01:37:20;;;;;;;;;;;22.60;99.30;;;;;;5015551;28;20012;-79
2022/06/10 01:39:49;;;;;;;;;;;22.60;99.40;;;;;;5015963;28;20007;-79
2022/06/10 01:42:22;;;;;;;;;;;22.60;99.60;;;;;;5015133;28;20015;-79
2022/06/10 01:44:53;;;;;;;;;;;22.60;99.80;;;;;;5019139;28;20424;-79
2022/06/10 01:47:22;;;;;;;;;;;22.60;99.90;;;;;;5019434;28;19960;-79
2022/06/10 01:49:52;;;;;;;;;;;22.60;99.90;;;;;;5019817;28;19928;-79
2022/06/10 01:52:23;;;;;;;;;;;22.60;99.90;;;;;;5019149;28;19965;-79
2022/06/10 01:54:56;;;;;;;;;;;22.60;99.90;;;;;;5018850;28;19926;-79
2022/06/10 01:57:25;;;;;;;;;;;22.60;99.90;;;;;;5018756;28;19971;-79
2022/06/10 01:59:54;;;;;;;;;;;22.60;99.90;;;;;;5019068;28;20020;-79
2022/06/10 02:02:25;;;;;;;;;;;22.60;99.90;;;;;;5019176;28;20012;-79
2022/06/10 02:04:54;;;;;;;;;;;22.60;99.90;;;;;;5018430;28;19922;-79
2022/06/10 02:07:22;;;;;;;;;;;22.60;99.90;;;;;;5018350;28;20012;-78
2022/06/10 02:09:51;;;;;;;;;;;22.60;99.90;;;;;;5019112;28;20004;-79
2022/06/10 02:12:19;;;;;;;;;;;22.60;99.90;;;;;;5018846;28;19928;-79
2022/06/10 02:14:49;;;;;;;;;;;22.60;99.90;;;;;;5018068;28;20301;-79
2022/06/10 02:17:17;;;;;;;;;;;22.60;99.90;;;;;;5018797;28;20011;-79
2022/06/10 02:19:49;;;;;;;;;;;22.60;99.90;;;;;;5019342;28;20016;-80
2022/06/10 02:22:20;;;;;;;;;;;22.60;99.90;;;;;;5018540;28;20020;-80
2022/06/10 02:24:51;;;;;;;;;;;22.60;99.90;;;;;;5018202;28;19928;-79
2022/06/10 02:27:20;;;;;;;;;;;22.60;99.90;;;;;;5018554;28;19964;-79
2022/06/10 02:29:54;;;;;;;;;;;22.60;99.90;;;;;;5018302;28;20339;-80
2022/06/10 02:32:21;;;;;;;;;;;22.60;99.90;;;;;;5018638;28;19953;-80
2022/06/10 02:34:49;;;;;;;;;;;22.60;99.90;;;;;;5018453;28;20012;-80
2022/06/10 02:37:20;;;;;;;;;;;22.60;99.90;;;;;;5018789;28;20363;-80
2022/06/10 02:39:52;;;;;;;;;;;22.60;99.90;;;;;;5019090;28;19943;-80
2022/06/10 02:42:20;;;;;;;;;;;22.60;99.90;;;;;;5018634;28;19925;-80
2022/06/10 02:44:50;;;;;;;;;;;22.60;99.90;;;;;;5018546;28;19927;-80
2022/06/10 02:47:19;;;;;;;;;;;22.60;99.90;;;;;;5018534;28;20004;-80
2022/06/10 02:49:46;;;;;;;;;;;22.60;99.90;;;;;;5018809;28;19921;-80
2022/06/10 02:52:15;;;;;;;;;;;22.60;99.90;;;;;;5018424;28;19932;-80
2022/06/10 02:54:43;;;;;;;;;;;22.60;99.90;;;;;;5017299;28;19921;-80
2022/06/10 02:57:13;;;;;;;;;;;22.60;99.90;;;;;;5018365;28;20401;-80
2022/06/10 03:02:31;;;;;;;;;;;22.60;99.90;;;;;;5009566;28;20361;-80
2022/06/10 03:05:03;;;;;;;;;;;22.60;99.90;;;;;;5019299;28;19975;-80
2022/06/10 03:07:38;;;;;;;;;;;22.60;99.90;;;;;;5019373;28;19921;-80
2022/06/10 03:10:10;;;;;;;;;;;22.60;99.90;;;;;;5019003;28;19964;-80
2022/06/10 03:12:38;;;;;;;;;;;22.60;99.90;;;;;;5019135;28;20015;-80
2022/06/10 03:15:16;;;;;;;;;;;22.60;99.90;;;;;;5019143;28;20008;-80
2022/06/10 03:17:46;;;;;;;;;;;22.60;99.90;;;;;;5018576;28;20282;-80
2022/06/10 03:20:17;;;;;;;;;;;22.60;99.90;;;;;;5018888;28;20024;-80
2022/06/10 03:22:52;;;;;;;;;;;22.60;99.90;;;;;;5018327;28;20008;-80
2022/06/10 03:25:21;;;;;;;;;;;22.60;99.90;;;;;;5018761;28;19921;-80
2022/06/10 03:27:51;;;;;;;;;;;22.50;99.90;;;;;;5018727;28;20291;-80
2022/06/10 03:30:20;;;;;;;;;;;22.60;99.90;;;;;;5019259;28;19921;-80
2022/06/10 03:32:49;;;;;;;;;;;22.50;99.90;;;;;;5018612;28;20395;-80
2022/06/10 03:35:18;;;;;;;;;;;22.50;99.90;;;;;;5018578;28;19928;-80
2022/06/10 03:37:45;;;;;;;;;;;22.60;99.90;;;;;;5018062;28;20016;-80
2022/06/10 03:40:16;;;;;;;;;;;22.60;99.90;;;;;;5018352;28;19928;-80
2022/06/10 03:42:46;;;;;;;;;;;22.60;99.90;;;;;;5022482;28;19948;-80
2022/06/10 03:45:15;;;;;;;;;;;22.60;99.90;;;;;;5021468;28;20004;-80
2022/06/10 03:47:42;;;;;;;;;;;22.50;99.90;;;;;;5021658;28;19985;-80
2022/06/10 03:50:12;;;;;;;;;;;22.50;99.90;;;;;;5021937;28;20015;-80
2022/06/10 03:52:39;;;;;;;;;;;22.50;99.90;;;;;;5021125;28;19983;-80
2022/06/10 03:55:08;;;;;;;;;;;22.50;99.90;;;;;;5021333;28;20441;-80
2022/06/10 03:57:36;;;;;;;;;;;22.50;99.90;;;;;;5016833;28;19968;-80
2022/06/10 04:00:06;;;;;;;;;;;22.60;99.90;;;;;;5016310;28;19921;-80
2022/06/10 04:02:32;;;;;;;;;;;22.50;99.90;;;;;;5016255;28;19927;-80
2022/06/10 04:04:59;;;;;;;;;;;22.60;99.90;;;;;;5015492;28;20352;-80
2022/06/10 04:07:26;;;;;;;;;;;22.50;99.90;;;;;;5015265;28;19973;-79
2022/06/10 04:09:52;;;;;;;;;;;22.60;99.90;;;;;;5015552;28;19927;-79
2022/06/10 04:12:21;;;;;;;;;;;22.50;99.90;;;;;;5019555;28;20377;-79
2022/06/10 04:14:49;;;;;;;;;;;22.50;99.90;;;;;;5022756;28;20008;-79
2022/06/10 04:17:16;;;;;;;;;;;22.50;99.90;;;;;;5022477;28;20553;-80
2022/06/10 04:19:43;;;;;;;;;;;22.50;99.90;;;;;;5021612;28;19921;-80
2022/06/10 04:22:10;;;;;;;;;;;22.50;99.90;;;;;;5018655;28;19957;-79
2022/06/10 04:24:36;;;;;;;;;;;22.50;99.90;;;;;;5017968;28;20440;-79
2022/06/10 04:27:03;;;;;;;;;;;22.50;99.90;;;;;;5018287;28;19921;-79
2022/06/10 04:29:30;;;;;;;;;;;22.50;99.90;;;;;;5020178;28;19928;-79
2022/06/10 04:31:58;;;;;;;;;;;22.50;99.90;;;;;;5018212;28;19921;-79
2022/06/10 04:34:25;;;;;;;;;;;22.60;99.90;;;;;;5018320;28;20020;-80
2022/06/10 04:36:51;;;;;;;;;;;22.50;99.90;;;;;;5018581;28;20015;-79
2022/06/10 04:39:18;;;;;;;;;;;22.50;99.90;;;;;;5019738;28;20012;-80
2022/06/10 04:41:45;;;;;;;;;;;22.50;99.90;;;;;;5019177;28;19925;-80
2022/06/10 04:44:12;;;;;;;;;;;22.50;99.90;;;;;;5015769;28;19927;-80
2022/06/10 04:46:40;;;;;;;;;;;22.50;99.90;;;;;;5015780;28;20011;-80
2022/06/10 04:49:08;;;;;;;;;;;22.50;99.90;;;;;;5015725;28;20016;-80
2022/06/10 04:51:35;;;;;;;;;;;22.50;99.90;;;;;;5015385;28;20289;-80
2022/06/10 04:54:03;;;;;;;;;;;22.50;99.90;;;;;;5015407;28;19921;-80
2022/06/10 04:56:30;;;;;;;;;;;22.50;99.90;;;;;;5015402;28;20346;-79
2022/06/10 04:58:57;;;;;;;;;;;22.50;99.90;;;;;;5015295;28;19921;-79
2022/06/10 05:01:23;;;;;;;;;;;22.50;99.90;;;;;;5015676;28;19921;-79
2022/06/10 05:03:50;;;;;;;;;;;22.50;99.90;;;;;;5015933;28;19971;-79
2022/06/10 05:06:18;;;;;;;;;;;22.50;99.90;;;;;;5016299;28;19969;-79
2022/06/10 05:08:45;;;;;;;;;;;22.50;99.90;;;;;;5016559;28;19925;-81
2022/06/10 05:11:12;;;;;;;;;;;22.50;99.90;;;;;;5017235;28;20008;-81
2022/06/10 05:13:38;;;;;;;;;;;22.50;99.90;;;;;;5017856;28;19921;-81
2022/06/10 05:16:05;;;;;;;;;;;22.50;99.90;;;;;;5016967;28;19976;-81
2022/06/10 05:18:33;;;;;;;;;;;22.50;99.90;;;;;;5016957;28;19968;-81
2022/06/10 05:20:59;;;;;;;;;;;22.50;99.90;;;;;;5019156;28;19984;-81
2022/06/10 05:23:28;;;;;;;;;;;22.50;99.90;;;;;;5018857;28;19921;-81
2022/06/10 05:25:54;;;;;;;;;;;22.50;99.90;;;;;;5017234;28;20119;-79
2022/06/10 05:28:22;;;;;;;;;;;22.50;99.90;;;;;;5016402;28;19921;-81
2022/06/10 05:30:48;;;;;;;;;;;22.50;99.90;;;;;;5016284;28;19969;-81
2022/06/10 05:33:15;;;;;;;;;;;22.50;99.90;;;;;;5015409;28;19931;-80
2022/06/10 05:35:42;;;;;;;;;;;22.50;99.90;;;;;;5016168;28;19922;-80
2022/06/10 05:38:09;;;;;;;;;;;22.50;99.90;;;;;;5016329;28;19928;-80
2022/06/10 05:40:37;;;;;;;;;;;22.50;99.90;;;;;;5015883;28;19968;-80
2022/06/10 05:43:05;;;;;;;;;;;22.50;99.90;;;;;;5015959;28;19944;-80
2022/06/10 05:45:32;;;;;;;;;;;22.50;99.90;;;;;;5016322;28;19975;-80
2022/06/10 05:48:01;;;;;;;;;;;22.50;99.90;;;;;;5016585;28;19925;-80
2022/06/10 05:50:29;;;;;;;;;;;22.50;99.90;;;;;;5017483;28;20012;-81
2022/06/10 05:52:56;;;;;;;;;;;22.50;99.90;;;;;;5016415;28;20403;-81
2022/06/10 05:55:23;;;;;;;;;;;22.50;99.90;;;;;;5015628;28;19921;-80
2022/06/10 05:57:51;;;;;;;;;;;22.50;99.90;;;;;;5016075;28;19922;-80
2022/06/10 06:00:19;;;;;;;;;;;22.50;99.90;;;;;;5016368;28;20318;-80
2022/06/10 06:02:46;;;;;;;;;;;22.50;99.90;;;;;;5016579;28;20365;-80
2022/06/10 06:05:12;;;;;;;;;;;22.50;99.90;;;;;;5016625;28;20049;-80
2022/06/10 06:07:40;;;;;;;;;;;22.50;99.90;;;;;;5017087;28;19976;-80
2022/06/10 06:10:08;;;;;;;;;;;22.50;99.90;;;;;;5016181;28;20075;-80
2022/06/10 06:12:35;;;;;;;;;;;22.50;99.90;;;;;;5015578;28;19922;-80
2022/06/10 06:15:03;;;;;;;;;;;22.50;99.90;;;;;;5015862;28;19921;-80
2022/06/10 06:17:30;;;;;;;;;;;22.50;99.90;;;;;;5016406;28;19928;-80
2022/06/10 06:19:56;;;;;;;;;;;22.50;99.90;;;;;;5016061;28;19921;-81
2022/06/10 06:22:23;;;;;;;;;;;22.50;99.90;;;;;;5016006;28;20017;-80
2022/06/10 06:24:50;;;;;;;;;;;22.50;99.90;;;;;;5015943;28;19972;-79
2022/06/10 06:27:16;;;;;;;;;;;22.50;99.90;;;;;;5014428;28;19968;-78
2022/06/10 06:29:43;;;;;;;;;;;22.50;99.90;;;;;;5013872;28;20382;-78
2022/06/10 06:32:11;;;;;;;;;;;22.50;99.90;;;;;;5017458;28;19927;-78
2022/06/10 06:34:39;;;;;;;;;;;22.50;99.90;;;;;;5017241;28;20400;-79
2022/06/10 06:37:06;;;;;;;;;;;22.50;99.90;;;;;;5017438;28;20000;-79
2022/06/10 06:39:32;;;;;;;;;;;22.50;99.90;;;;;;5017512;28;19976;-79
2022/06/10 06:41:59;;;;;;;;;;;22.50;99.90;;;;;;5017252;28;20009;-79
2022/06/10 06:44:26;;;;;;;;;;;22.50;99.90;;;;;;5016667;28;20334;-78
2022/06/10 06:46:53;;;;;;;;;;;22.50;99.90;;;;;;5016975;28;19988;-78
2022/06/10 06:49:22;;;;;;;;;;;22.50;99.90;;;;;;5017439;28;19964;-78
2022/06/10 06:51:49;;;;;;;;;;;22.50;99.90;;;;;;5017368;28;19975;-78
2022/06/10 06:54:16;;;;;;;;;;;22.50;99.90;;;;;;5017131;28;19925;-79
2022/06/10 06:56:43;;;;;;;;;;;22.50;99.90;;;;;;5017323;28;19921;-79
2022/06/10 06:59:10;;;;;;;;;;;22.50;99.90;;;;;;5017028;28;19964;-78
2022/06/10 07:01:37;;;;;;;;;;;22.50;99.90;;;;;;5016892;28;20285;-79
2022/06/10 07:04:04;;;;;;;;;;;22.50;99.90;;;;;;5016874;28;19961;-78
2022/06/10 07:06:33;;;;;;;;;;;22.50;99.90;;;;;;5016780;28;20271;-78
2022/06/10 07:08:59;;;;;;;;;;;22.50;99.90;;;;;;5017728;28;19928;-78
2022/06/10 07:11:26;;;;;;;;;;;22.50;99.90;;;;;;5018108;28;19972;-78
2022/06/10 07:13:53;;;;;;;;;;;22.50;99.90;;;;;;5021929;28;19988;-79
2022/06/10 07:16:20;;;;;;;;;;;22.50;99.90;;;;;;5021590;28;20054;-78
2022/06/10 07:18:47;;;;;;;;;;;22.50;99.90;;;;;;5020790;28;20004;-78
2022/06/10 07:21:14;;;;;;;;;;;22.50;99.90;;;;;;5020773;28;19925;-77
2022/06/10 07:23:43;;;;;;;;;;;22.50;99.90;;;;;;5020352;28;19921;-78
2022/06/10 07:26:10;;;;;;;;;;;22.50;99.90;;;;;;5019349;28;19948;-78
2022/06/10 07:28:37;;;;;;;;;;;22.50;99.90;;;;;;5016045;28;19928;-78
2022/06/10 07:31:04;;;;;;;;;;;22.50;99.90;;;;;;5015727;28;19928;-78
2022/06/10 07:33:31;;;;;;;;;;;22.50;99.90;;;;;;5015796;28;19947;-78
2022/06/10 07:35:57;;;;;;;;;;;22.50;99.90;;;;;;5015936;28;19929;-78
2022/06/10 07:38:24;;;;;;;;;;;22.50;99.90;;;;;;5015885;28;19967;-78
2022/06/10 07:43:36;;;;;;;;;;;22.50;99.90;;;;;;5015736;28;20011;-78
2022/06/10 07:46:04;;;;;;;;;;;22.50;99.90;;;;;;5015455;28;19921;-78
2022/06/10 07:48:31;;;;;;;;;;;22.50;99.90;;;;;;5015676;28;19921;-78
2022/06/10 07:50:57;;;;;;;;;;;22.50;99.90;;;;;;5015622;28;19927;-78
2022/06/10 07:53:24;;;;;;;;;;;22.50;99.90;;;;;;5015199;28;19928;-78
2022/06/10 07:55:52;;;;;;;;;;;22.50;99.90;;;;;;5015621;28;19932;-78
2022/06/10 07:58:20;;;;;;;;;;;22.50;99.90;;;;;;5017686;28;19922;-77
2022/06/10 08:00:48;;;;;;;;;;;22.50;99.90;;;;;;5020120;28;19926;-77
2022/06/10 08:03:15;;;;;;;;;;;22.50;99.90;;;;;;5019779;28;20317;-77
2022/06/10 08:05:42;;;;;;;;;;;22.50;99.90;;;;;;5017359;28;20405;-77
2022/06/10 08:08:09;;;;;;;;;;;22.50;99.90;;;;;;5015873;28;19921;-79
2022/06/10 08:10:36;;;;;;;;;;;22.50;99.90;;;;;;5016728;28;19928;-80
2022/06/10 08:13:05;;;;;;;;;;;22.50;99.90;;;;;;5016134;28;19921;-80
2022/06/10 08:15:32;;;;;;;;;;;22.50;99.90;;;;;;5015533;28;20378;-80
2022/06/10 08:17:59;;;;;;;;;;;22.50;99.90;;;;;;5015831;28;19953;-80
2022/06/10 08:23:08;;;;;;;;;;;22.50;99.90;;;;;;5015238;28;20055;-80
2022/06/10 08:25:34;;;;;;;;;;;22.50;99.90;;;;;;5016164;28;20270;-80
2022/06/10 08:28:01;;;;;;;;;;;22.50;99.90;;;;;;5015274;28;19943;-79
2022/06/10 08:30:29;;;;;;;;;;;22.50;99.90;;;;;;5015536;28;19972;-79
2022/06/10 08:32:56;;;;;;;;;;;22.50;99.90;;;;;;5015242;28;20008;-79
2022/06/10 08:35:22;;;;;;;;;;;22.50;99.90;;;;;;5015418;28;20020;-80
2022/06/10 08:37:49;;;;;;;;;;;22.50;99.90;;;;;;5016375;28;19957;-80
2022/06/10 08:40:19;;;;;;;;;;;22.50;99.90;;;;;;5017029;28;20009;-80
2022/06/10 08:42:46;;;;;;;;;;;22.50;99.90;;;;;;5015819;28;19968;-79
2022/06/10 08:45:18;;;;;;;;;;;22.50;99.90;;;;;;5016359;28;20005;-79
2022/06/10 08:48:00;;;;;;;;;;;22.50;99.90;;;;;;5016466;28;19921;-78
2022/06/10 08:51:00;;;;;;;;;;;22.50;99.90;;;;;;5012835;28;19921;-79
2022/06/10 08:53:37;;;;;;;;;;;22.50;99.90;;;;;;4972593;28;19984;-79
2022/06/10 08:56:06;;;;;;;;;;;22.60;99.90;;;;;;5022362;22;20004;-86
2022/06/10 08:58:37;;;;;;;;;;;22.50;99.90;;;;;;5059327;28;19928;-86
2022/06/10 09:01:07;;;;;;;;;;;22.50;99.90;;;;;;5055543;28;19920;-86
2022/06/10 09:03:36;;;;;;;;;;;22.50;99.90;;;;;;5054060;28;20011;-85
2022/06/10 09:06:04;;;;;;;;;;;22.50;99.90;;;;;;5054476;28;19921;-86
2022/06/10 09:08:33;;;;;;;;;;;22.40;99.90;;;;;;5054165;28;20343;-85
2022/06/10 09:11:07;;;;;;;;;;;22.40;99.90;;;;;;5053995;28;19975;-85
2022/06/10 09:13:37;;;;;;;;;;;22.40;99.90;;;;;;5054266;28;20004;-85
2022/06/10 09:16:12;;;;;;;;;;;22.40;99.90;;;;;;5054709;28;19920;-85
2022/06/10 09:18:43;;;;;;;;;;;22.40;99.90;;;;;;5054228;28;19999;-86
2022/06/10 09:21:15;;;;;;;;;;;22.40;99.90;;;;;;5054153;28;20003;-85
2022/06/10 09:23:42;;;;;;;;;;;22.40;99.90;;;;;;5053900;28;20023;-85
2022/06/10 09:26:13;;;;;;;;;;;22.40;99.90;;;;;;5054732;28;20394;-84
2022/06/10 09:28:42;;;;;;;;;;;22.30;99.90;;;;;;5055848;28;20003;-85
2022/06/10 09:31:13;;;;;;;;;;;22.30;99.90;;;;;;5055511;28;19947;-85
2022/06/10 09:33:43;;;;;;;;;;;22.30;99.90;;;;;;5056033;28;20283;-85
2022/06/10 09:36:16;;;;;;;;;;;22.20;99.90;;;;;;5059772;28;19959;-88
2022/06/10 09:38:46;;;;;;;;;;;22.20;99.90;;;;;;5057071;28;19960;-87
2022/06/10 09:41:16;;;;;;;;;;;22.20;99.90;;;;;;5054710;28;20438;-88
2022/06/10 09:43:50;;;;;;;;;;;22.20;99.90;;;;;;5063034;28;20245;-87
2022/06/10 09:46:27;;;;;;;;;;;22.20;99.90;;;;;;5066609;28;19999;-85
2022/06/10 09:49:03;;;;;;;;;;;22.30;99.90;;;;;;5059111;28;19928;-85
2022/06/10 09:51:35;;;;;;;;;;;22.30;99.90;;;;;;5061342;28;19928;-83
2022/06/10 09:54:15;;;;;;;;;;;22.30;99.90;;;;;;5059030;28;19966;-84
2022/06/10 09:56:58;;;;;;;;;;;22.30;99.90;;;;;;5058559;28;19999;-84
2022/06/10 09:59:29;;;;;;;;;;;22.30;99.90;;;;;;5058141;28;19975;-84
2022/06/10 10:01:59;;;;;;;;;;;22.30;99.90;;;;;;5056536;28;19964;-84
2022/06/10 10:04:38;;;;;;;;;;;22.30;99.90;;;;;;5060997;28;19987;-85
2022/06/10 10:07:07;;;;;;;;;;;22.30;99.90;;;;;;5063618;28;20015;-85
2022/06/10 10:09:40;;;;;;;;;;;22.30;99.90;;;;;;5063743;28;20018;-86
2022/06/10 10:12:13;;;;;;;;;;;22.30;99.90;;;;;;5063388;28;20021;-86
2022/06/10 10:14:45;;;;;;;;;;;22.30;99.90;;;;;;5059173;28;20394;-80
2022/06/10 10:17:26;;;;;;;;;;;22.40;99.90;;;;;;5058793;28;19921;-80
2022/06/10 10:19:58;;;;;;;;;;;22.40;99.90;;;;;;5058860;28;19980;-81
2022/06/10 10:22:41;;;;;;;;;;;22.40;99.90;;;;;;5060117;28;20437;-81
2022/06/10 10:25:12;;;;;;;;;;;22.40;99.90;;;;;;5060487;28;19921;-81
2022/06/10 10:27:40;;;;;;;;;;;22.40;99.90;;;;;;5059197;28;19921;-81
2022/06/10 10:30:15;;;;;;;;;;;22.40;99.90;;;;;;5061833;28;19975;-86
2022/06/10 10:32:44;;;;;;;;;;;22.40;99.90;;;;;;5059944;28;19924;-87
2022/06/10 10:35:16;;;;;;;;;;;22.50;99.90;;;;;;5057932;28;19920;-87
2022/06/10 10:37:51;;;;;;;;;;;22.50;99.90;;;;;;5059542;28;20015;-87
2022/06/10 10:40:18;;;;;;;;;;;22.50;99.90;;;;;;5059044;28;19928;-87
2022/06/10 10:42:47;;;;;;;;;;;22.50;99.90;;;;;;5060651;28;20370;-87
2022/06/10 10:45:19;;;;;;;;;;;22.50;99.90;;;;;;5059706;28;19920;-87
2022/06/10 10:47:49;;;;;;;;;;;22.50;99.90;;;;;;5057715;28;19932;-87
2022/06/10 10:50:18;;;;;;;;;;;22.40;99.90;;;;;;5057508;28;19920;-87
2022/06/10 10:52:45;;;;;;;;;;;22.40;99.90;;;;;;5057780;28;19999;-87
2022/06/10 10:55:22;;;;;;;;;;;22.40;99.90;;;;;;5060829;28;19968;-86
2022/06/10 10:57:59;;;;;;;;;;;22.40;99.90;;;;;;5060357;28;20027;-87
2022/06/10 11:00:31;;;;;;;;;;;22.40;99.90;;;;;;5059188;28;20023;-87
2022/06/10 11:03:00;;;;;;;;;;;22.40;99.90;;;;;;5061231;28;19984;-86
2022/06/10 11:05:31;;;;;;;;;;;22.30;99.90;;;;;;5059924;28;19927;-87
2022/06/10 11:08:20;;;;;;;;;;;22.30;99.90;;;;;;5057150;28;19943;-87
2022/06/10 11:11:05;;;;;;;;;;;22.30;99.90;;;;;;5057170;28;19921;-87
2022/06/10 11:13:44;;;;;;;;;;;22.30;99.90;;;;;;5046699;28;20364;-87
2022/06/10 11:16:36;;;;;;;;;;;22.30;99.90;;;;;;5057499;28;19971;-86
2022/06/10 11:19:25;;;;;;;;;;;22.40;99.90;;;;;;5044191;28;19928;-86
2022/06/10 11:21:54;;;;;;;;;;;22.40;99.90;;;;;;5032855;28;19924;-85
2022/06/10 11:24:24;;;;;;;;;;;22.40;99.90;;;;;;5058852;28;19943;-85
2022/06/10 11:26:52;;;;;;;;;;;22.40;99.90;;;;;;5058800;28;20288;-85
2022/06/10 11:29:21;;;;;;;;;;;22.40;99.90;;;;;;5058766;28;19924;-85
2022/06/10 11:31:49;;;;;;;;;;;22.50;99.90;;;;;;5063929;28;20011;-85
2022/06/10 11:34:18;;;;;;;;;;;22.50;99.90;;;;;;5064280;28;20288;-85
2022/06/10 11:36:47;;;;;;;;;;;22.50;99.90;;;;;;5063390;28;19971;-88
2022/06/10 11:39:16;;;;;;;;;;;22.40;99.90;;;;;;5060416;28;19920;-86
2022/06/10 11:41:43;;;;;;;;;;;22.50;99.90;;;;;;5057144;28;19921;-85
2022/06/10 11:44:14;;;;;;;;;;;22.50;99.90;;;;;;5060220;28;19976;-86
2022/06/10 11:46:47;;;;;;;;;;;22.50;99.90;;;;;;5059710;28;19974;-85
2022/06/10 11:49:17;;;;;;;;;;;22.50;99.90;;;;;;5058429;28;20004;-84
2022/06/10 11:51:46;;;;;;;;;;;22.50;99.90;;;;;;5058281;28;20031;-84
2022/06/10 11:54:19;;;;;;;;;;;22.50;99.90;;;;;;5057843;28;20341;-84
2022/06/10 11:59:45;;;;;;;;;;;22.50;99.80;;;;;;5058442;28;19963;-84
2022/06/10 12:02:16;;;;;;;;;;;22.50;99.70;;;;;;5058171;28;20023;-84
2022/06/10 12:04:45;;;;;;;;;;;22.50;99.70;;;;;;5059808;28;19921;-86
2022/06/10 12:07:14;;;;;;;;;;;22.50;99.50;;;;;;5059163;28;19990;-86
2022/06/10 12:09:43;;;;;;;;;;;22.50;99.40;;;;;;5056650;28;19929;-84
2022/06/10 12:12:12;;;;;;;;;;;22.50;99.30;;;;;;5060010;28;19960;-84
2022/06/10 12:14:41;;;;;;;;;;;22.50;99.20;;;;;;5058512;28;20007;-83
2022/06/10 12:17:14;;;;;;;;;;;22.50;99.10;;;;;;5059952;28;20303;-83
2022/06/10 12:19:44;;;;;;;;;;;22.50;99.00;;;;;;5058708;28;19959;-87
2022/06/10 12:22:11;;;;;;;;;;;22.60;99.00;;;;;;5059595;28;20004;-85
2022/06/10 12:24:38;;;;;;;;;;;22.60;99.00;;;;;;5059835;28;19943;-85
2022/06/10 12:27:06;;;;;;;;;;;22.60;98.90;;;;;;5058081;28;20349;-85
2022/06/10 12:29:37;;;;;;;;;;;22.60;98.70;;;;;;5056125;28;20431;-84
2022/06/10 12:32:10;;;;;;;;;;;22.60;98.50;;;;;;5055432;28;19920;-85
2022/06/10 12:34:51;;;;;;;;;;;22.50;98.30;;;;;;5055575;28;19925;-84
2022/06/10 12:37:22;;;;;;;;;;;22.50;98.20;;;;;;5055584;28;19927;-84
2022/06/10 12:39:53;;;;;;;;;;;22.50;98.10;;;;;;5059190;28;20020;-83
2022/06/10 12:42:22;;;;;;;;;;;22.60;98.00;;;;;;5061411;28;19935;-83
2022/06/10 12:44:51;;;;;;;;;;;22.60;98.00;;;;;;5062624;28;19956;-85
2022/06/10 12:47:20;;;;;;;;;;;22.60;97.90;;;;;;5060679;28;19928;-84
2022/06/10 12:49:56;;;;;;;;;;;22.60;97.80;;;;;;5061821;28;19965;-86
2022/06/10 12:52:50;;;;;;;;;;;22.60;97.80;;;;;;5061060;28;20383;-86
2022/06/10 12:55:21;;;;;;;;;;;22.60;97.70;;;;;;5060794;28;20383;-86
2022/06/10 12:57:50;;;;;;;;;;;22.60;97.60;;;;;;5055285;28;20356;-86
2022/06/10 13:00:26;;;;;;;;;;;22.60;97.50;;;;;;5055892;28;20340;-86
2022/06/10 13:02:54;;;;;;;;;;;22.60;97.40;;;;;;5055950;28;19920;-86
2022/06/10 13:05:23;;;;;;;;;;;22.60;97.20;;;;;;5055929;28;20003;-85
2022/06/10 13:07:51;;;;;;;;;;;22.60;97.10;;;;;;5055841;28;19921;-85
2022/06/10 13:10:33;;;;;;;;;;;22.60;97.00;;;;;;5055442;28;19924;-85
2022/06/10 13:13:10;;;;;;;;;;;22.60;96.80;;;;;;5056332;28;19927;-86
2022/06/10 13:15:37;;;;;;;;;;;22.60;97.00;;;;;;5061272;28;19924;-86
2022/06/10 13:18:06;;;;;;;;;;;22.60;96.60;;;;;;5060691;28;19971;-86
2022/06/10 13:20:39;;;;;;;;;;;22.60;96.60;;;;;;5060881;28;20395;-86
2022/06/10 13:23:20;;;;;;;;;;;22.60;96.60;;;;;;5061232;28;19967;-85
2022/06/10 13:25:49;;;;;;;;;;;22.60;96.60;;;;;;5059993;28;20011;-85
2022/06/10 13:28:23;;;;;;;;;;;22.60;96.50;;;;;;5063445;28;19928;-84
2022/06/10 13:30:51;;;;;;;;;;;22.60;96.40;;;;;;5062010;28;20432;-85
2022/06/10 13:33:18;;;;;;;;;;;22.60;96.30;;;;;;5061284;28;19921;-86
2022/06/10 13:35:53;;;;;;;;;;;22.60;96.40;;;;;;5060471;28;20020;-84
2022/06/10 13:38:22;;;;;;;;;;;22.60;96.40;;;;;;5060727;28;19920;-84
2022/06/10 13:40:51;;;;;;;;;;;22.60;96.30;;;;;;5064818;28;19921;-86
2022/06/10 13:43:21;;;;;;;;;;;22.60;96.30;;;;;;5068023;28;19920;-84
2022/06/10 13:45:48;;;;;;;;;;;22.70;96.40;;;;;;5066169;28;20018;-82
2022/06/10 13:48:16;;;;;;;;;;;22.70;96.50;;;;;;5065253;28;19948;-84
2022/06/10 13:51:12;;;;;;;;;;;22.70;96.60;;;;;;5064070;28;19921;-83
2022/06/10 13:53:42;;;;;;;;;;;22.70;96.60;;;;;;5064277;28;19935;-82
2022/06/10 13:56:13;;;;;;;;;;;22.70;96.90;;;;;;5064489;28;19927;-83
2022/06/10 13:58:45;;;;;;;;;;;22.70;96.60;;;;;;5061973;28;19921;-82
2022/06/10 14:01:16;;;;;;;;;;;22.80;96.90;;;;;;5062978;28;19970;-83
2022/06/10 14:03:44;;;;;;;;;;;22.70;97.00;;;;;;5061129;28;20384;-84
2022/06/10 14:06:17;;;;;;;;;;;22.80;97.10;;;;;;5059638;28;19955;-84
2022/06/10 14:08:49;;;;;;;;;;;22.80;97.20;;;;;;5059866;28;20012;-85
2022/06/10 14:11:18;;;;;;;;;;;22.80;97.30;;;;;;5059137;28;19920;-83
2022/06/10 14:13:52;;;;;;;;;;;22.80;97.30;;;;;;5060548;28;20003;-80
2022/06/10 14:16:19;;;;;;;;;;;22.80;97.40;;;;;;5059758;28;20015;-81
2022/06/10 14:18:46;;;;;;;;;;;22.80;97.40;;;;;;5058511;28;20368;-81
2022/06/10 14:21:13;;;;;;;;;;;22.80;97.50;;;;;;5058826;28;20321;-81
2022/06/10 14:23:55;;;;;;;;;;;22.80;97.60;;;;;;5058775;28;20379;-82
2022/06/10 14:26:24;;;;;;;;;;;22.80;97.60;;;;;;5058788;28;19963;-82
2022/06/10 14:28:53;;;;;;;;;;;22.80;97.70;;;;;;5058265;28;20361;-81
2022/06/10 14:31:25;;;;;;;;;;;22.80;97.80;;;;;;5058422;28;19979;-81
2022/06/10 14:33:55;;;;;;;;;;;22.80;97.90;;;;;;5058864;28;19927;-83
2022/06/10 14:36:23;;;;;;;;;;;22.80;98.40;;;;;;5058547;28;19971;-82
2022/06/10 14:39:05;;;;;;;;;;;22.80;98.30;;;;;;5058920;28;19920;-81
2022/06/10 14:41:33;;;;;;;;;;;22.90;98.30;;;;;;5059294;28;20019;-79
2022/06/10 14:44:02;;;;;;;;;;;22.90;98.50;;;;;;5058115;28;19921;-79
2022/06/10 14:46:29;;;;;;;;;;;22.90;98.60;;;;;;5058912;28;19921;-80